sensor_id;sensor_type;location;lat;lon;timestamp;temperature;humidity
10316;DHT22;5203;48.976;8.306;2022-07-01T00:00:36;18.00;90.20
10316;DHT22;5203;48.976;8.306;2022-07-01T00:03:02;18.10;90.10
10316;DHT22;5203;48.976;8.306;2022-07-01T00:05:30;18.10;90.90
10316;DHT22;5203;48.976;8.306;2022-07-01T00:07:56;18.20;89.00
10316;DHT22;5203;48.976;8.306;2022-07-01T00:10:23;18.30;89.20
10316;DHT22;5203;48.976;8.306;2022-07-01T00:12:49;18.20;89.60
10316;DHT22;5203;48.976;8.306;2022-07-01T00:15:15;18.20;89.90
10316;DHT22;5203;48.976;8.306;2022-07-01T00:17:41;18.10;90.00
10316;DHT22;5203;48.976;8.306;2022-07-01T00:20:09;18.10;90.20
10316;DHT22;5203;48.976;8.306;2022-07-01T00:22:35;17.90;90.80
10316;DHT22;5203;48.976;8.306;2022-07-01T00:25:01;17.90;91.60
10316;DHT22;5203;48.976;8.306;2022-07-01T00:27:28;17.90;91.20
10316;DHT22;5203;48.976;8.306;2022-07-01T00:29:53;18.00;91.30
10316;DHT22;5203;48.976;8.306;2022-07-01T00:32:19;18.10;90.40
10316;DHT22;5203;48.976;8.306;2022-07-01T00:34:45;18.00;91.00
10316;DHT22;5203;48.976;8.306;2022-07-01T00:37:10;18.00;91.30
10316;DHT22;5203;48.976;8.306;2022-07-01T00:39:36;17.90;91.30
10316;DHT22;5203;48.976;8.306;2022-07-01T00:42:03;17.90;91.70
10316;DHT22;5203;48.976;8.306;2022-07-01T00:44:30;18.00;91.70
10316;DHT22;5203;48.976;8.306;2022-07-01T00:46:59;17.90;91.50
10316;DHT22;5203;48.976;8.306;2022-07-01T00:49:25;17.90;92.10
10316;DHT22;5203;48.976;8.306;2022-07-01T00:51:52;18.00;91.20
10316;DHT22;5203;48.976;8.306;2022-07-01T00:54:19;18.00;91.20
10316;DHT22;5203;48.976;8.306;2022-07-01T00:56:45;18.10;90.10
10316;DHT22;5203;48.976;8.306;2022-07-01T00:59:11;18.10;90.70
10316;DHT22;5203;48.976;8.306;2022-07-01T01:01:37;18.10;91.10
10316;DHT22;5203;48.976;8.306;2022-07-01T01:04:06;17.80;91.80
10316;DHT22;5203;48.976;8.306;2022-07-01T01:06:33;17.90;92.20
10316;DHT22;5203;48.976;8.306;2022-07-01T01:08:59;17.90;91.10
10316;DHT22;5203;48.976;8.306;2022-07-01T01:11:26;17.90;91.00
10316;DHT22;5203;48.976;8.306;2022-07-01T01:13:51;17.90;91.30
10316;DHT22;5203;48.976;8.306;2022-07-01T01:16:22;18.00;91.70
10316;DHT22;5203;48.976;8.306;2022-07-01T01:18:48;18.30;91.20
10316;DHT22;5203;48.976;8.306;2022-07-01T01:21:14;18.40;89.20
10316;DHT22;5203;48.976;8.306;2022-07-01T01:23:41;18.60;89.20
10316;DHT22;5203;48.976;8.306;2022-07-01T01:26:18;18.70;87.80
10316;DHT22;5203;48.976;8.306;2022-07-01T01:28:44;18.80;89.90
10316;DHT22;5203;48.976;8.306;2022-07-01T01:31:10;18.80;90.20
10316;DHT22;5203;48.976;8.306;2022-07-01T01:33:37;18.90;89.20
10316;DHT22;5203;48.976;8.306;2022-07-01T01:36:03;19.00;89.10
10316;DHT22;5203;48.976;8.306;2022-07-01T01:38:29;19.20;88.00
10316;DHT22;5203;48.976;8.306;2022-07-01T01:40:55;19.10;85.90
10316;DHT22;5203;48.976;8.306;2022-07-01T01:43:21;18.80;86.60
10316;DHT22;5203;48.976;8.306;2022-07-01T01:45:46;18.70;89.20
10316;DHT22;5203;48.976;8.306;2022-07-01T01:48:12;18.70;87.60
10316;DHT22;5203;48.976;8.306;2022-07-01T01:50:38;18.70;90.10
10316;DHT22;5203;48.976;8.306;2022-07-01T01:53:04;18.80;89.00
10316;DHT22;5203;48.976;8.306;2022-07-01T01:55:29;18.70;88.60
10316;DHT22;5203;48.976;8.306;2022-07-01T01:57:55;18.70;89.50
10316;DHT22;5203;48.976;8.306;2022-07-01T02:00:21;18.70;89.00
10316;DHT22;5203;48.976;8.306;2022-07-01T02:02:46;18.90;89.50
10316;DHT22;5203;48.976;8.306;2022-07-01T02:05:13;19.00;89.00
10316;DHT22;5203;48.976;8.306;2022-07-01T02:07:39;19.00;87.40
10316;DHT22;5203;48.976;8.306;2022-07-01T02:10:06;19.00;87.60
10316;DHT22;5203;48.976;8.306;2022-07-01T02:12:32;18.90;87.00
10316;DHT22;5203;48.976;8.306;2022-07-01T02:14:58;18.80;88.40
10316;DHT22;5203;48.976;8.306;2022-07-01T02:17:23;18.80;88.50
10316;DHT22;5203;48.976;8.306;2022-07-01T02:19:51;18.60;89.40
10316;DHT22;5203;48.976;8.306;2022-07-01T02:22:17;18.60;90.30
10316;DHT22;5203;48.976;8.306;2022-07-01T02:24:42;18.60;90.10
10316;DHT22;5203;48.976;8.306;2022-07-01T02:27:09;18.60;89.80
10316;DHT22;5203;48.976;8.306;2022-07-01T02:29:35;18.50;90.10
10316;DHT22;5203;48.976;8.306;2022-07-01T02:32:01;18.50;90.50
10316;DHT22;5203;48.976;8.306;2022-07-01T02:34:26;18.50;90.30
10316;DHT22;5203;48.976;8.306;2022-07-01T02:36:52;18.50;90.10
10316;DHT22;5203;48.976;8.306;2022-07-01T02:39:21;18.70;89.80
10316;DHT22;5203;48.976;8.306;2022-07-01T02:41:47;18.70;89.70
10316;DHT22;5203;48.976;8.306;2022-07-01T02:44:31;18.60;89.50
10316;DHT22;5203;48.976;8.306;2022-07-01T02:46:56;18.40;90.30
10316;DHT22;5203;48.976;8.306;2022-07-01T02:49:23;18.40;90.70
10316;DHT22;5203;48.976;8.306;2022-07-01T02:51:49;18.50;91.00
10316;DHT22;5203;48.976;8.306;2022-07-01T02:54:14;18.70;89.70
10316;DHT22;5203;48.976;8.306;2022-07-01T02:56:40;18.60;88.70
10316;DHT22;5203;48.976;8.306;2022-07-01T02:59:06;18.40;91.00
10316;DHT22;5203;48.976;8.306;2022-07-01T03:01:31;18.30;91.20
10316;DHT22;5203;48.976;8.306;2022-07-01T03:03:57;18.20;91.80
10316;DHT22;5203;48.976;8.306;2022-07-01T03:06:22;17.90;93.30
10316;DHT22;5203;48.976;8.306;2022-07-01T03:08:48;17.90;93.50
10316;DHT22;5203;48.976;8.306;2022-07-01T03:11:14;18.00;92.30
10316;DHT22;5203;48.976;8.306;2022-07-01T03:13:40;18.10;92.00
10316;DHT22;5203;48.976;8.306;2022-07-01T03:16:05;18.20;91.80
10316;DHT22;5203;48.976;8.306;2022-07-01T03:18:31;18.10;91.30
10316;DHT22;5203;48.976;8.306;2022-07-01T03:20:57;18.10;92.50
10316;DHT22;5203;48.976;8.306;2022-07-01T03:23:23;18.00;92.30
10316;DHT22;5203;48.976;8.306;2022-07-01T03:25:48;18.00;92.00
10316;DHT22;5203;48.976;8.306;2022-07-01T03:28:14;18.00;93.00
10316;DHT22;5203;48.976;8.306;2022-07-01T03:30:40;17.90;93.00
10316;DHT22;5203;48.976;8.306;2022-07-01T03:33:06;17.80;93.80
10316;DHT22;5203;48.976;8.306;2022-07-01T03:35:31;17.70;94.30
10316;DHT22;5203;48.976;8.306;2022-07-01T03:38:11;17.70;94.10
10316;DHT22;5203;48.976;8.306;2022-07-01T03:40:37;17.70;94.20
10316;DHT22;5203;48.976;8.306;2022-07-01T03:43:03;17.60;94.10
10316;DHT22;5203;48.976;8.306;2022-07-01T03:45:31;17.50;95.00
10316;DHT22;5203;48.976;8.306;2022-07-01T03:47:57;17.50;94.80
10316;DHT22;5203;48.976;8.306;2022-07-01T03:50:24;17.30;96.30
10316;DHT22;5203;48.976;8.306;2022-07-01T03:52:51;17.20;96.50
10316;DHT22;5203;48.976;8.306;2022-07-01T03:55:35;17.40;95.00
10316;DHT22;5203;48.976;8.306;2022-07-01T03:58:01;17.30;94.80
10316;DHT22;5203;48.976;8.306;2022-07-01T04:00:27;17.30;94.70
10316;DHT22;5203;48.976;8.306;2022-07-01T04:02:53;17.30;95.60
10316;DHT22;5203;48.976;8.306;2022-07-01T04:05:19;17.10;95.80
10316;DHT22;5203;48.976;8.306;2022-07-01T04:07:44;17.10;94.80
10316;DHT22;5203;48.976;8.306;2022-07-01T04:10:11;17.10;95.10
10316;DHT22;5203;48.976;8.306;2022-07-01T04:12:38;17.10;95.20
10316;DHT22;5203;48.976;8.306;2022-07-01T04:15:04;16.90;95.70
10316;DHT22;5203;48.976;8.306;2022-07-01T04:17:30;16.90;96.20
10316;DHT22;5203;48.976;8.306;2022-07-01T04:19:56;17.10;96.20
10316;DHT22;5203;48.976;8.306;2022-07-01T04:22:21;17.10;96.80
10316;DHT22;5203;48.976;8.306;2022-07-01T04:25:02;17.00;96.30
10316;DHT22;5203;48.976;8.306;2022-07-01T04:27:31;16.90;97.10
10316;DHT22;5203;48.976;8.306;2022-07-01T04:29:57;16.80;96.80
10316;DHT22;5203;48.976;8.306;2022-07-01T04:32:23;16.80;96.90
10316;DHT22;5203;48.976;8.306;2022-07-01T04:34:49;16.80;96.90
10316;DHT22;5203;48.976;8.306;2022-07-01T04:37:15;16.80;97.00
10316;DHT22;5203;48.976;8.306;2022-07-01T04:39:41;16.80;97.50
10316;DHT22;5203;48.976;8.306;2022-07-01T04:42:07;16.80;97.90
10316;DHT22;5203;48.976;8.306;2022-07-01T04:44:37;16.90;98.00
10316;DHT22;5203;48.976;8.306;2022-07-01T04:47:04;16.80;97.50
10316;DHT22;5203;48.976;8.306;2022-07-01T04:49:31;16.60;98.60
10316;DHT22;5203;48.976;8.306;2022-07-01T04:51:57;16.70;99.20
10316;DHT22;5203;48.976;8.306;2022-07-01T04:54:24;16.60;99.20
10316;DHT22;5203;48.976;8.306;2022-07-01T04:56:51;16.60;99.30
10316;DHT22;5203;48.976;8.306;2022-07-01T04:59:18;16.50;99.50
10316;DHT22;5203;48.976;8.306;2022-07-01T05:01:45;16.50;99.90
10316;DHT22;5203;48.976;8.306;2022-07-01T05:04:14;16.50;98.60
10316;DHT22;5203;48.976;8.306;2022-07-01T05:06:40;16.50;99.30
10316;DHT22;5203;48.976;8.306;2022-07-01T05:09:06;16.60;98.80
10316;DHT22;5203;48.976;8.306;2022-07-01T05:11:32;16.70;99.00
10316;DHT22;5203;48.976;8.306;2022-07-01T05:13:58;16.80;98.80
10316;DHT22;5203;48.976;8.306;2022-07-01T05:16:24;16.80;97.60
10316;DHT22;5203;48.976;8.306;2022-07-01T05:18:49;16.80;98.60
10316;DHT22;5203;48.976;8.306;2022-07-01T05:21:33;16.80;98.40
10316;DHT22;5203;48.976;8.306;2022-07-01T05:24:18;16.70;98.00
10316;DHT22;5203;48.976;8.306;2022-07-01T05:26:43;16.60;98.70
10316;DHT22;5203;48.976;8.306;2022-07-01T05:29:09;16.70;98.20
10316;DHT22;5203;48.976;8.306;2022-07-01T05:31:35;16.80;98.10
10316;DHT22;5203;48.976;8.306;2022-07-01T05:34:01;16.90;97.30
10316;DHT22;5203;48.976;8.306;2022-07-01T05:36:27;16.90;97.40
10316;DHT22;5203;48.976;8.306;2022-07-01T05:38:52;16.90;97.80
10316;DHT22;5203;48.976;8.306;2022-07-01T05:41:18;16.70;98.90
10316;DHT22;5203;48.976;8.306;2022-07-01T05:43:44;16.80;98.60
10316;DHT22;5203;48.976;8.306;2022-07-01T05:46:10;16.90;98.40
10316;DHT22;5203;48.976;8.306;2022-07-01T05:48:36;17.00;97.70
10316;DHT22;5203;48.976;8.306;2022-07-01T05:51:02;17.10;97.50
10316;DHT22;5203;48.976;8.306;2022-07-01T05:53:28;17.20;96.70
10316;DHT22;5203;48.976;8.306;2022-07-01T05:55:54;17.20;96.70
10316;DHT22;5203;48.976;8.306;2022-07-01T05:58:19;17.00;97.60
10316;DHT22;5203;48.976;8.306;2022-07-01T06:00:45;17.10;97.90
10316;DHT22;5203;48.976;8.306;2022-07-01T06:03:12;17.10;98.10
10316;DHT22;5203;48.976;8.306;2022-07-01T06:05:39;17.00;98.50
10316;DHT22;5203;48.976;8.306;2022-07-01T06:08:05;17.10;99.00
10316;DHT22;5203;48.976;8.306;2022-07-01T06:10:34;17.10;99.90
10316;DHT22;5203;48.976;8.306;2022-07-01T06:13:01;16.90;99.90
10316;DHT22;5203;48.976;8.306;2022-07-01T06:15:27;16.90;99.80
10316;DHT22;5203;48.976;8.306;2022-07-01T06:17:53;17.00;99.90
10316;DHT22;5203;48.976;8.306;2022-07-01T06:20:19;17.00;99.90
10316;DHT22;5203;48.976;8.306;2022-07-01T06:22:46;16.90;98.70
10316;DHT22;5203;48.976;8.306;2022-07-01T06:25:12;17.20;99.20
10316;DHT22;5203;48.976;8.306;2022-07-01T06:27:42;17.10;99.50
10316;DHT22;5203;48.976;8.306;2022-07-01T06:30:08;17.20;98.70
10316;DHT22;5203;48.976;8.306;2022-07-01T06:32:34;17.10;99.90
10316;DHT22;5203;48.976;8.306;2022-07-01T06:35:00;17.00;99.10
10316;DHT22;5203;48.976;8.306;2022-07-01T06:37:26;17.00;98.00
10316;DHT22;5203;48.976;8.306;2022-07-01T06:39:52;17.00;98.90
10316;DHT22;5203;48.976;8.306;2022-07-01T06:42:17;16.90;98.70
10316;DHT22;5203;48.976;8.306;2022-07-01T06:44:43;16.90;99.70
10316;DHT22;5203;48.976;8.306;2022-07-01T06:47:09;16.90;98.60
10316;DHT22;5203;48.976;8.306;2022-07-01T06:49:35;16.90;99.70
10316;DHT22;5203;48.976;8.306;2022-07-01T06:52:01;16.90;99.90
10316;DHT22;5203;48.976;8.306;2022-07-01T06:54:26;16.80;99.90
10316;DHT22;5203;48.976;8.306;2022-07-01T06:56:54;16.90;99.90
10316;DHT22;5203;48.976;8.306;2022-07-01T06:59:19;16.90;99.90
10316;DHT22;5203;48.976;8.306;2022-07-01T07:01:45;16.90;99.90
10316;DHT22;5203;48.976;8.306;2022-07-01T07:04:11;16.70;99.90
10316;DHT22;5203;48.976;8.306;2022-07-01T07:06:37;16.80;99.90
10316;DHT22;5203;48.976;8.306;2022-07-01T07:09:03;16.90;99.90
10316;DHT22;5203;48.976;8.306;2022-07-01T07:11:28;16.90;99.90
10316;DHT22;5203;48.976;8.306;2022-07-01T07:13:54;16.80;99.90
10316;DHT22;5203;48.976;8.306;2022-07-01T07:16:20;16.70;99.90
10316;DHT22;5203;48.976;8.306;2022-07-01T07:18:50;16.70;99.90
10316;DHT22;5203;48.976;8.306;2022-07-01T07:21:16;16.80;99.90
10316;DHT22;5203;48.976;8.306;2022-07-01T07:23:42;16.90;99.90
10316;DHT22;5203;48.976;8.306;2022-07-01T07:26:08;16.90;99.90
10316;DHT22;5203;48.976;8.306;2022-07-01T07:28:34;16.90;99.90
10316;DHT22;5203;48.976;8.306;2022-07-01T07:31:00;16.70;99.90
10316;DHT22;5203;48.976;8.306;2022-07-01T07:33:26;16.70;99.90
10316;DHT22;5203;48.976;8.306;2022-07-01T07:35:52;16.60;99.90
10316;DHT22;5203;48.976;8.306;2022-07-01T07:38:18;16.50;99.90
10316;DHT22;5203;48.976;8.306;2022-07-01T07:40:44;16.70;99.90
10316;DHT22;5203;48.976;8.306;2022-07-01T07:43:10;16.90;99.90
10316;DHT22;5203;48.976;8.306;2022-07-01T07:45:36;16.90;99.00
10316;DHT22;5203;48.976;8.306;2022-07-01T07:48:01;17.10;99.20
10316;DHT22;5203;48.976;8.306;2022-07-01T07:50:28;17.00;99.90
10316;DHT22;5203;48.976;8.306;2022-07-01T07:52:53;16.90;99.90
10316;DHT22;5203;48.976;8.306;2022-07-01T07:55:19;16.80;99.90
10316;DHT22;5203;48.976;8.306;2022-07-01T07:57:45;16.90;99.90
10316;DHT22;5203;48.976;8.306;2022-07-01T08:00:12;16.80;99.90
10316;DHT22;5203;48.976;8.306;2022-07-01T08:02:40;16.70;99.90
10316;DHT22;5203;48.976;8.306;2022-07-01T08:05:06;16.50;99.90
10316;DHT22;5203;48.976;8.306;2022-07-01T08:07:37;16.40;99.90
10316;DHT22;5203;48.976;8.306;2022-07-01T08:10:06;16.40;99.90
10316;DHT22;5203;48.976;8.306;2022-07-01T08:12:33;16.60;99.90
10316;DHT22;5203;48.976;8.306;2022-07-01T08:14:59;16.50;99.90
10316;DHT22;5203;48.976;8.306;2022-07-01T08:17:25;16.60;99.90
10316;DHT22;5203;48.976;8.306;2022-07-01T08:19:52;16.70;99.90
10316;DHT22;5203;48.976;8.306;2022-07-01T08:22:17;16.70;99.90
10316;DHT22;5203;48.976;8.306;2022-07-01T08:24:43;16.60;99.90
10316;DHT22;5203;48.976;8.306;2022-07-01T08:27:09;16.70;99.90
10316;DHT22;5203;48.976;8.306;2022-07-01T08:29:36;16.60;99.90
10316;DHT22;5203;48.976;8.306;2022-07-01T08:32:01;16.70;99.90
10316;DHT22;5203;48.976;8.306;2022-07-01T08:34:27;16.90;99.90
10316;DHT22;5203;48.976;8.306;2022-07-01T08:36:53;17.00;99.90
10316;DHT22;5203;48.976;8.306;2022-07-01T08:39:19;17.00;99.90
10316;DHT22;5203;48.976;8.306;2022-07-01T08:41:46;16.80;99.90
10316;DHT22;5203;48.976;8.306;2022-07-01T08:44:12;16.90;99.90
10316;DHT22;5203;48.976;8.306;2022-07-01T08:46:38;16.90;99.90
10316;DHT22;5203;48.976;8.306;2022-07-01T08:49:04;17.10;99.90
10316;DHT22;5203;48.976;8.306;2022-07-01T08:51:30;17.20;99.90
10316;DHT22;5203;48.976;8.306;2022-07-01T08:53:55;17.10;99.90
10316;DHT22;5203;48.976;8.306;2022-07-01T08:56:21;17.00;99.90
10316;DHT22;5203;48.976;8.306;2022-07-01T08:59:05;17.10;99.90
10316;DHT22;5203;48.976;8.306;2022-07-01T09:01:33;17.00;97.50
10316;DHT22;5203;48.976;8.306;2022-07-01T09:04:19;17.20;99.80
10316;DHT22;5203;48.976;8.306;2022-07-01T09:06:46;17.40;96.50
10316;DHT22;5203;48.976;8.306;2022-07-01T09:09:20;17.40;99.10
10316;DHT22;5203;48.976;8.306;2022-07-01T09:11:53;17.50;97.20
10316;DHT22;5203;48.976;8.306;2022-07-01T09:14:21;17.70;93.60
10316;DHT22;5203;48.976;8.306;2022-07-01T09:16:52;17.80;94.80
10316;DHT22;5203;48.976;8.306;2022-07-01T09:19:19;17.90;91.50
10316;DHT22;5203;48.976;8.306;2022-07-01T09:21:51;18.00;92.10
10316;DHT22;5203;48.976;8.306;2022-07-01T09:24:37;18.00;87.90
10316;DHT22;5203;48.976;8.306;2022-07-01T09:29:43;18.10;87.50
10316;DHT22;5203;48.976;8.306;2022-07-01T09:32:11;18.10;90.40
10316;DHT22;5203;48.976;8.306;2022-07-01T09:34:43;18.40;91.00
10316;DHT22;5203;48.976;8.306;2022-07-01T09:37:15;18.60;91.30
10316;DHT22;5203;48.976;8.306;2022-07-01T09:39:45;18.60;85.50
10316;DHT22;5203;48.976;8.306;2022-07-01T09:42:12;18.50;87.60
10316;DHT22;5203;48.976;8.306;2022-07-01T09:44:57;18.80;87.60
10316;DHT22;5203;48.976;8.306;2022-07-01T09:47:24;18.80;85.50
10316;DHT22;5203;48.976;8.306;2022-07-01T09:50:17;18.80;82.60
10316;DHT22;5203;48.976;8.306;2022-07-01T09:52:43;19.10;84.00
10316;DHT22;5203;48.976;8.306;2022-07-01T09:55:09;19.40;81.70
10316;DHT22;5203;48.976;8.306;2022-07-01T09:57:34;19.60;80.30
10316;DHT22;5203;48.976;8.306;2022-07-01T10:00:00;19.90;80.70
10316;DHT22;5203;48.976;8.306;2022-07-01T10:02:27;20.10;78.70
10316;DHT22;5203;48.976;8.306;2022-07-01T10:05:06;20.10;79.60
10316;DHT22;5203;48.976;8.306;2022-07-01T10:12:40;20.50;77.50
10316;DHT22;5203;48.976;8.306;2022-07-01T10:15:10;20.80;77.20
10316;DHT22;5203;48.976;8.306;2022-07-01T10:17:42;20.70;76.40
10316;DHT22;5203;48.976;8.306;2022-07-01T10:20:17;20.40;75.40
10316;DHT22;5203;48.976;8.306;2022-07-01T10:22:43;20.40;77.20
10316;DHT22;5203;48.976;8.306;2022-07-01T10:25:48;20.40;77.60
10316;DHT22;5203;48.976;8.306;2022-07-01T10:36:45;19.90;77.40
10316;DHT22;5203;48.976;8.306;2022-07-01T10:39:10;20.20;76.20
10316;DHT22;5203;48.976;8.306;2022-07-01T10:41:43;20.20;71.50
10316;DHT22;5203;48.976;8.306;2022-07-01T10:44:21;20.60;70.30
10316;DHT22;5203;48.976;8.306;2022-07-01T10:47:01;21.30;65.10
10316;DHT22;5203;48.976;8.306;2022-07-01T10:52:11;22.10;66.20
10316;DHT22;5203;48.976;8.306;2022-07-01T10:59:53;22.90;58.60
10316;DHT22;5203;48.976;8.306;2022-07-01T11:02:23;22.80;59.50
10316;DHT22;5203;48.976;8.306;2022-07-01T11:05:10;23.00;58.10
10316;DHT22;5203;48.976;8.306;2022-07-01T11:07:46;23.40;55.10
10316;DHT22;5203;48.976;8.306;2022-07-01T11:10:14;23.70;57.00
10316;DHT22;5203;48.976;8.306;2022-07-01T11:12:41;23.40;57.50
10316;DHT22;5203;48.976;8.306;2022-07-01T11:15:09;23.90;54.70
10316;DHT22;5203;48.976;8.306;2022-07-01T11:17:47;23.80;52.80
10316;DHT22;5203;48.976;8.306;2022-07-01T11:20:13;23.50;54.50
10316;DHT22;5203;48.976;8.306;2022-07-01T11:22:39;23.00;55.90
10316;DHT22;5203;48.976;8.306;2022-07-01T11:25:07;22.80;57.10
10316;DHT22;5203;48.976;8.306;2022-07-01T11:27:34;22.90;54.90
10316;DHT22;5203;48.976;8.306;2022-07-01T11:30:08;22.80;54.80
10316;DHT22;5203;48.976;8.306;2022-07-01T11:32:46;22.70;54.60
10316;DHT22;5203;48.976;8.306;2022-07-01T11:35:16;22.60;55.30
10316;DHT22;5203;48.976;8.306;2022-07-01T11:38:13;22.20;56.10
10316;DHT22;5203;48.976;8.306;2022-07-01T11:41:00;22.10;61.10
10316;DHT22;5203;48.976;8.306;2022-07-01T11:43:31;22.10;61.20
10316;DHT22;5203;48.976;8.306;2022-07-01T11:46:00;22.10;60.80
10316;DHT22;5203;48.976;8.306;2022-07-01T11:48:38;21.70;62.00
10316;DHT22;5203;48.976;8.306;2022-07-01T11:51:07;21.30;61.10
10316;DHT22;5203;48.976;8.306;2022-07-01T11:53:34;21.60;62.60
10316;DHT22;5203;48.976;8.306;2022-07-01T11:56:00;22.00;60.10
10316;DHT22;5203;48.976;8.306;2022-07-01T11:58:58;22.40;60.80
10316;DHT22;5203;48.976;8.306;2022-07-01T12:01:29;21.80;59.90
10316;DHT22;5203;48.976;8.306;2022-07-01T12:03:58;22.00;61.00
10316;DHT22;5203;48.976;8.306;2022-07-01T12:06:25;22.20;60.50
10316;DHT22;5203;48.976;8.306;2022-07-01T12:08:51;22.50;59.30
10316;DHT22;5203;48.976;8.306;2022-07-01T12:11:19;22.50;59.20
10316;DHT22;5203;48.976;8.306;2022-07-01T12:13:47;22.10;59.10
10316;DHT22;5203;48.976;8.306;2022-07-01T12:16:13;22.60;56.10
10316;DHT22;5203;48.976;8.306;2022-07-01T12:18:49;22.80;57.10
10316;DHT22;5203;48.976;8.306;2022-07-01T12:21:15;22.50;55.40
10316;DHT22;5203;48.976;8.306;2022-07-01T12:23:41;22.50;59.50
10316;DHT22;5203;48.976;8.306;2022-07-01T12:26:07;22.60;58.10
10316;DHT22;5203;48.976;8.306;2022-07-01T12:28:37;22.40;57.30
10316;DHT22;5203;48.976;8.306;2022-07-01T12:31:09;22.70;57.60
10316;DHT22;5203;48.976;8.306;2022-07-01T12:33:39;23.40;55.60
10316;DHT22;5203;48.976;8.306;2022-07-01T12:36:06;23.70;54.40
10316;DHT22;5203;48.976;8.306;2022-07-01T12:38:33;23.80;53.10
10316;DHT22;5203;48.976;8.306;2022-07-01T12:40:59;24.50;51.70
10316;DHT22;5203;48.976;8.306;2022-07-01T12:43:29;24.60;50.00
10316;DHT22;5203;48.976;8.306;2022-07-01T12:45:59;25.20;47.30
10316;DHT22;5203;48.976;8.306;2022-07-01T12:48:25;25.40;48.50
10316;DHT22;5203;48.976;8.306;2022-07-01T12:50:58;25.20;47.30
10316;DHT22;5203;48.976;8.306;2022-07-01T12:53:25;25.20;45.40
10316;DHT22;5203;48.976;8.306;2022-07-01T12:55:57;25.30;48.80
10316;DHT22;5203;48.976;8.306;2022-07-01T12:58:27;25.90;46.10
10316;DHT22;5203;48.976;8.306;2022-07-01T13:00:55;26.40;43.70
10316;DHT22;5203;48.976;8.306;2022-07-01T13:03:23;26.50;40.10
10316;DHT22;5203;48.976;8.306;2022-07-01T13:05:51;26.40;41.60
10316;DHT22;5203;48.976;8.306;2022-07-01T13:08:17;26.20;43.10
10316;DHT22;5203;48.976;8.306;2022-07-01T13:10:43;25.50;45.20
10316;DHT22;5203;48.976;8.306;2022-07-01T13:13:09;25.70;45.90
10316;DHT22;5203;48.976;8.306;2022-07-01T13:15:35;25.60;44.00
10316;DHT22;5203;48.976;8.306;2022-07-01T13:18:02;25.80;42.90
10316;DHT22;5203;48.976;8.306;2022-07-01T13:20:29;26.20;42.50
10316;DHT22;5203;48.976;8.306;2022-07-01T13:22:54;26.40;44.80
10316;DHT22;5203;48.976;8.306;2022-07-01T13:25:20;26.10;42.20
10316;DHT22;5203;48.976;8.306;2022-07-01T13:27:47;26.00;45.90
10316;DHT22;5203;48.976;8.306;2022-07-01T13:30:13;27.00;41.20
10316;DHT22;5203;48.976;8.306;2022-07-01T13:32:40;26.90;39.90
10316;DHT22;5203;48.976;8.306;2022-07-01T13:35:07;26.40;40.70
10316;DHT22;5203;48.976;8.306;2022-07-01T13:37:33;26.50;39.70
10316;DHT22;5203;48.976;8.306;2022-07-01T13:39:59;26.10;42.20
10316;DHT22;5203;48.976;8.306;2022-07-01T13:42:24;26.40;40.40
10316;DHT22;5203;48.976;8.306;2022-07-01T13:44:50;27.10;39.60
10316;DHT22;5203;48.976;8.306;2022-07-01T13:47:16;27.80;40.50
10316;DHT22;5203;48.976;8.306;2022-07-01T13:49:42;28.00;39.60
10316;DHT22;5203;48.976;8.306;2022-07-01T13:52:09;28.00;39.20
10316;DHT22;5203;48.976;8.306;2022-07-01T13:54:34;27.60;39.40
10316;DHT22;5203;48.976;8.306;2022-07-01T13:57:00;27.60;39.30
10316;DHT22;5203;48.976;8.306;2022-07-01T13:59:26;27.60;38.20
10316;DHT22;5203;48.976;8.306;2022-07-01T14:01:52;27.90;37.00
10316;DHT22;5203;48.976;8.306;2022-07-01T14:04:18;27.30;38.60
10316;DHT22;5203;48.976;8.306;2022-07-01T14:06:44;27.30;38.20
10316;DHT22;5203;48.976;8.306;2022-07-01T14:09:10;27.70;37.80
10316;DHT22;5203;48.976;8.306;2022-07-01T14:11:37;28.10;37.20
10316;DHT22;5203;48.976;8.306;2022-07-01T14:14:02;27.60;36.40
10316;DHT22;5203;48.976;8.306;2022-07-01T14:16:28;27.80;37.50
10316;DHT22;5203;48.976;8.306;2022-07-01T14:18:56;27.60;37.70
10316;DHT22;5203;48.976;8.306;2022-07-01T14:21:22;26.60;38.90
10316;DHT22;5203;48.976;8.306;2022-07-01T14:23:48;26.80;38.40
10316;DHT22;5203;48.976;8.306;2022-07-01T14:26:14;27.80;37.40
10316;DHT22;5203;48.976;8.306;2022-07-01T14:28:41;28.60;36.10
10316;DHT22;5203;48.976;8.306;2022-07-01T14:31:07;28.60;36.30
10316;DHT22;5203;48.976;8.306;2022-07-01T14:33:33;28.90;37.20
10316;DHT22;5203;48.976;8.306;2022-07-01T14:35:59;28.80;35.30
10316;DHT22;5203;48.976;8.306;2022-07-01T14:38:25;28.10;37.90
10316;DHT22;5203;48.976;8.306;2022-07-01T14:40:51;27.30;38.60
10316;DHT22;5203;48.976;8.306;2022-07-01T14:43:17;27.30;38.70
10316;DHT22;5203;48.976;8.306;2022-07-01T14:45:42;26.40;40.00
10316;DHT22;5203;48.976;8.306;2022-07-01T14:48:08;25.90;43.70
10316;DHT22;5203;48.976;8.306;2022-07-01T14:50:35;25.80;42.60
10316;DHT22;5203;48.976;8.306;2022-07-01T14:53:01;25.60;44.60
10316;DHT22;5203;48.976;8.306;2022-07-01T14:55:30;25.80;42.90
10316;DHT22;5203;48.976;8.306;2022-07-01T14:57:56;25.60;43.50
10316;DHT22;5203;48.976;8.306;2022-07-01T15:00:22;25.50;43.70
10316;DHT22;5203;48.976;8.306;2022-07-01T15:02:48;25.00;47.70
10316;DHT22;5203;48.976;8.306;2022-07-01T15:05:14;25.00;48.10
10316;DHT22;5203;48.976;8.306;2022-07-01T15:07:40;24.90;45.70
10316;DHT22;5203;48.976;8.306;2022-07-01T15:10:07;24.90;46.70
10316;DHT22;5203;48.976;8.306;2022-07-01T15:12:33;25.00;47.20
10316;DHT22;5203;48.976;8.306;2022-07-01T15:14:59;25.10;45.30
10316;DHT22;5203;48.976;8.306;2022-07-01T15:17:25;25.20;45.70
10316;DHT22;5203;48.976;8.306;2022-07-01T15:19:51;25.30;45.50
10316;DHT22;5203;48.976;8.306;2022-07-01T15:22:17;26.10;44.60
10316;DHT22;5203;48.976;8.306;2022-07-01T15:24:43;26.60;40.80
10316;DHT22;5203;48.976;8.306;2022-07-01T15:27:09;26.40;42.10
10316;DHT22;5203;48.976;8.306;2022-07-01T15:29:36;26.10;42.00
10316;DHT22;5203;48.976;8.306;2022-07-01T15:32:02;25.90;44.50
10316;DHT22;5203;48.976;8.306;2022-07-01T15:34:28;25.40;43.90
10316;DHT22;5203;48.976;8.306;2022-07-01T15:36:54;25.10;44.30
10316;DHT22;5203;48.976;8.306;2022-07-01T15:39:20;24.90;46.00
10316;DHT22;5203;48.976;8.306;2022-07-01T15:41:46;24.90;46.00
10316;DHT22;5203;48.976;8.306;2022-07-01T15:44:12;24.80;45.80
10316;DHT22;5203;48.976;8.306;2022-07-01T15:46:39;24.90;46.50
10316;DHT22;5203;48.976;8.306;2022-07-01T15:49:05;24.70;47.30
10316;DHT22;5203;48.976;8.306;2022-07-01T15:51:34;24.90;48.30
10316;DHT22;5203;48.976;8.306;2022-07-01T15:54:01;25.30;47.40
10316;DHT22;5203;48.976;8.306;2022-07-01T15:56:31;25.70;44.30
10316;DHT22;5203;48.976;8.306;2022-07-01T15:58:57;25.70;44.10
10316;DHT22;5203;48.976;8.306;2022-07-01T16:01:24;25.30;45.50
10316;DHT22;5203;48.976;8.306;2022-07-01T16:03:51;25.30;45.80
10316;DHT22;5203;48.976;8.306;2022-07-01T16:06:18;25.70;43.60
10316;DHT22;5203;48.976;8.306;2022-07-01T16:08:51;26.20;44.60
10316;DHT22;5203;48.976;8.306;2022-07-01T16:11:17;26.60;41.00